Nashwauk, MN (55769)

2:37 PM CDT on September 25, 2016 (GMT -0500)
Chisholm-hibbing | | Change Station

Elev 1352 ft 47.39 °N, 92.84 °W | Updated 44 minutes ago

Overcast
Overcast
61 °F
Feels Like 61 °F
N
12
Wind Variable Wind from SW
Gusts 24 mph

Today
High -- | Low -- °F
--% Chance of Precip.
Yesterday
High -- | Low -- °F
Precip. -- in
Pressure 29.76 in
Visibility 10.0 miles
Clouds Mostly Cloudy 2800 ft
Overcast 3700 ft
Dew Point 52 °F
Humidity 72%
Rainfall 0.44 in
Snow Depth Not available.
7:04 AM 7:03 PM
Waning Crescent, 25% visible
METAR KHIB 251853Z AUTO 23010G21KT 210V270 10SM BKN028 OVC037 16/11 A2975 RMK AO2 SLP076 T01610111
Pressure 29.76 in
Visibility 10.0 miles
Clouds Mostly Cloudy 2800 ft
Overcast 3700 ft
Dew Point 52 °F
Humidity 72%
Rainfall 0.44 in
Snow Depth Not available.
7:04 AM 7:03 PM
Waning Crescent, 25% visible
METAR KHIB 251853Z AUTO 23010G21KT 210V270 10SM BKN028 OVC037 16/11 A2975 RMK AO2 SLP076 T01610111

10-Day Weather Forecast

Almanac

Astronomy

Sep. 25, 2016 Rise Set
Actual Time
Civil Twilight
Nautical Twilight
Astronomical Twilight
Moon
Length of Visible Light
Length of Day
Tomorrow will be .
, % of the Moon is Illuminated

Today's Extremes

State Highs State Lows

Community

WunderPhotos

Upload Photos

1,941,704 photos uploaded!

WunderBlog® & News

Nearby

Air Quality

  Air Quality AQ Index Pollutant
Not available.

Snow Depth

Station Depth Elevation

Earthquake Activity

City Distance Mag. Time & Date
Minimum magnitude displayed is 2.5.

Coastal Water Temperatures

Place Temperature

Stations

Nearby Weather Stations

Station Location Temp. Windchill Dew Point Humidity Wind Precip. Elev Updated Type
                   

Watches & Warnings

There are currently no watches in effect.